createdAt,value
2023-05-01T00:00:20.271Z,30.55
2023-05-01T00:02:54.553Z,29.75
2023-05-01T00:05:23.892Z,32.60
2023-05-01T00:07:53.448Z,28.50
2023-05-01T00:10:22.568Z,29.85
2023-05-01T00:12:51.870Z,27.38
2023-05-01T00:15:22.311Z,29.23
2023-05-01T00:17:52.034Z,27.30
2023-05-01T00:20:21.769Z,26.55
2023-05-01T00:22:50.773Z,29.48
2023-05-01T00:25:19.830Z,30.75
2023-05-01T00:27:49.436Z,27.65
2023-05-01T00:30:18.887Z,29.23
2023-05-01T00:32:49.305Z,29.30
2023-05-01T00:35:18.624Z,26.60
2023-05-01T00:37:48.156Z,26.42
2023-05-01T00:40:17.451Z,30.17
2023-05-01T00:42:46.665Z,29.58
2023-05-01T00:45:16.111Z,30.33
2023-05-01T00:47:45.256Z,26.77
2023-05-01T00:50:15.996Z,31.45
2023-05-01T00:52:44.995Z,28.75
2023-05-01T00:55:14.665Z,28.15
2023-05-01T00:57:44.137Z,36.80
2023-05-01T01:00:14.217Z,33.40
2023-05-01T01:02:43.537Z,34.85
2023-05-01T01:05:12.660Z,38.58
2023-05-01T01:07:45.103Z,35.35
2023-05-01T01:10:19.540Z,37.10
2023-05-01T01:12:54.274Z,34.72
2023-05-01T01:15:28.236Z,41.30
2023-05-01T01:18:01.410Z,36.90
2023-05-01T01:20:34.171Z,32.33
2023-05-01T01:23:15.478Z,29.55
2023-05-01T01:25:58.096Z,36.80
2023-05-01T01:28:36.986Z,33.35
2023-05-01T01:31:13.226Z,37.83
2023-05-01T01:33:57.188Z,39.38
2023-05-01T01:36:33.379Z,33.85
2023-05-01T01:39:08.089Z,43.75
2023-05-01T01:41:38.901Z,39.38
2023-05-01T01:44:10.502Z,38.72
2023-05-01T01:46:41.405Z,34.63
2023-05-01T01:49:15.278Z,45.72
2023-05-01T01:51:44.991Z,37.92
2023-05-01T01:54:15.680Z,38.45
2023-05-01T01:56:45.842Z,33.45
2023-05-01T01:59:17.436Z,39.65
2023-05-01T02:01:48.298Z,36.30
2023-05-01T02:04:19.978Z,42.80
2023-05-01T02:06:50.009Z,36.95
2023-05-01T02:09:21.162Z,37.20
2023-05-01T02:11:51.516Z,40.40
2023-05-01T02:14:20.873Z,36.25
2023-05-01T02:16:50.638Z,42.22
2023-05-01T02:19:21.674Z,38.22
2023-05-01T02:21:51.471Z,37.00
2023-05-01T02:24:22.682Z,36.97
2023-05-01T02:26:54.402Z,36.10
2023-05-01T02:29:25.570Z,35.63
2023-05-01T02:31:54.992Z,37.72
2023-05-01T02:34:25.650Z,41.45
2023-05-01T02:36:54.658Z,41.35
2023-05-01T02:39:24.136Z,37.85
2023-05-01T02:41:55.090Z,39.67
2023-05-01T02:44:25.869Z,41.15
2023-05-01T02:46:55.503Z,40.40
2023-05-01T02:49:26.273Z,38.33
2023-05-01T02:51:55.373Z,39.33
2023-05-01T02:54:25.105Z,41.72
2023-05-01T02:56:54.073Z,45.30
2023-05-01T02:59:23.018Z,37.95
2023-05-01T03:01:52.436Z,49.22
2023-05-01T03:04:21.505Z,38.53
2023-05-01T03:06:51.923Z,42.97
2023-05-01T03:09:21.179Z,43.38
2023-05-01T03:11:50.189Z,43.13
2023-05-01T03:14:19.827Z,44.85
2023-05-01T03:16:49.074Z,42.33
2023-05-01T03:19:18.083Z,41.25
2023-05-01T03:21:47.023Z,37.28
2023-05-01T03:24:17.355Z,32.45
2023-05-01T03:26:47.728Z,35.95
2023-05-01T03:29:16.612Z,33.13
2023-05-01T03:31:46.210Z,37.42
2023-05-01T03:34:15.445Z,36.20
2023-05-01T03:36:44.372Z,39.00
2023-05-01T03:39:13.776Z,34.00
2023-05-01T03:42:19.311Z,35.05
2023-05-01T03:44:49.448Z,36.88
2023-05-01T03:47:19.366Z,35.72
2023-05-01T03:49:48.625Z,37.45
2023-05-01T03:52:17.829Z,32.28
2023-05-01T03:54:47.868Z,40.47
2023-05-01T03:57:27.753Z,36.40
2023-05-01T03:59:57.441Z,38.00
2023-05-01T04:02:27.727Z,34.85
2023-05-01T04:04:57.505Z,38.03
2023-05-01T04:07:26.822Z,42.17
2023-05-01T04:09:56.091Z,38.70
2023-05-01T04:12:25.156Z,37.00
2023-05-01T04:14:55.481Z,38.60
2023-05-01T04:17:25.530Z,44.15
2023-05-01T04:19:55.447Z,43.05
2023-05-01T04:22:24.719Z,41.92
2023-05-01T04:24:54.541Z,39.20
2023-05-01T04:27:23.769Z,38.83
2023-05-01T04:29:54.981Z,46.22
2023-05-01T04:32:25.141Z,60.63
2023-05-01T04:34:54.437Z,45.85
2023-05-01T04:37:24.608Z,45.83
2023-05-01T04:39:54.141Z,36.65
2023-05-01T04:42:24.896Z,33.80
2023-05-01T04:44:55.761Z,36.70
2023-05-01T04:47:24.770Z,34.42
2023-05-01T04:49:54.067Z,33.08
2023-05-01T04:52:23.423Z,31.50
2023-05-01T04:54:58.012Z,35.63
2023-05-01T04:57:29.523Z,34.97
2023-05-01T05:00:00.298Z,35.45
2023-05-01T05:02:29.778Z,39.90
2023-05-01T05:04:59.196Z,33.75
2023-05-01T05:07:29.172Z,31.75
2023-05-01T05:10:17.417Z,37.80
2023-05-01T05:12:54.501Z,34.33
2023-05-01T05:15:25.172Z,34.03
2023-05-01T05:17:56.494Z,30.02
2023-05-01T05:20:26.857Z,37.20
2023-05-01T05:22:56.285Z,44.08
2023-05-01T05:25:27.250Z,33.57
2023-05-01T05:27:56.376Z,27.17
2023-05-01T05:30:28.594Z,31.92
2023-05-01T05:32:58.398Z,37.80
2023-05-01T05:35:27.624Z,38.30
2023-05-01T05:37:57.433Z,29.65
2023-05-01T05:40:27.546Z,25.38
2023-05-01T05:42:59.304Z,33.10
2023-05-01T05:45:35.465Z,30.08
2023-05-01T05:48:05.002Z,24.60
2023-05-01T05:50:37.982Z,38.55
2023-05-01T05:53:10.106Z,32.13
2023-05-01T05:55:40.680Z,29.38
2023-05-01T05:58:11.185Z,28.95
2023-05-01T06:00:42.069Z,31.75
2023-05-01T06:03:11.945Z,34.03
2023-05-01T06:05:42.685Z,27.27
2023-05-01T06:08:14.049Z,28.25
2023-05-01T06:10:44.765Z,23.83
2023-05-01T06:13:15.646Z,24.70
2023-05-01T06:15:49.279Z,25.73
2023-05-01T06:18:19.095Z,21.67
2023-05-01T06:20:48.357Z,26.30
2023-05-01T06:23:17.515Z,28.17
2023-05-01T06:25:55.234Z,26.95
2023-05-01T06:28:24.496Z,22.00
2023-05-01T06:30:54.866Z,25.88
2023-05-01T06:33:26.158Z,24.65
2023-05-01T06:36:06.577Z,19.85
2023-05-01T06:38:35.833Z,19.50
2023-05-01T06:41:06.278Z,29.70
2023-05-01T06:43:35.513Z,26.13
2023-05-01T06:46:06.324Z,30.30
2023-05-01T06:48:35.703Z,22.58
2023-05-01T06:51:04.786Z,26.33
2023-05-01T06:53:33.901Z,21.77
2023-05-01T06:56:02.928Z,25.02
2023-05-01T06:58:31.975Z,30.60
2023-05-01T07:01:01.020Z,24.23
2023-05-01T07:03:31.440Z,29.38
2023-05-01T07:06:00.507Z,27.25
2023-05-01T07:08:29.538Z,24.02
2023-05-01T07:10:58.573Z,20.80
2023-05-01T07:13:27.878Z,24.40
2023-05-01T07:15:56.804Z,24.05
2023-05-01T07:18:25.714Z,28.25
2023-05-01T07:20:56.015Z,28.58
2023-05-01T07:23:25.902Z,25.67
2023-05-01T07:25:55.108Z,26.55
2023-05-01T07:28:24.184Z,30.58
2023-05-01T07:30:53.249Z,23.92
2023-05-01T07:33:23.386Z,23.73
2023-05-01T07:35:53.375Z,20.15
2023-05-01T07:38:23.828Z,29.83
2023-05-01T07:40:54.411Z,21.30
2023-05-01T07:43:23.346Z,22.73
2023-05-01T07:45:58.943Z,24.67
2023-05-01T07:48:28.551Z,28.65
2023-05-01T07:50:58.721Z,25.77
2023-05-01T07:53:33.185Z,26.00
2023-05-01T07:56:09.065Z,29.23
2023-05-01T07:58:38.613Z,31.52
2023-05-01T08:01:09.212Z,32.45
2023-05-01T08:03:38.957Z,25.35
2023-05-01T08:06:08.458Z,33.58
2023-05-01T08:08:39.153Z,31.90
2023-05-01T08:11:08.217Z,25.00
2023-05-01T08:13:37.673Z,27.90
2023-05-01T08:16:07.326Z,24.98
2023-05-01T08:18:37.272Z,30.77
2023-05-01T08:21:06.700Z,26.70
2023-05-01T08:23:35.841Z,26.15
2023-05-01T08:26:06.420Z,27.05
2023-05-01T08:28:37.470Z,25.83
2023-05-01T08:31:07.055Z,25.70
2023-05-01T08:33:37.094Z,31.38
2023-05-01T08:36:06.369Z,27.80
2023-05-01T08:38:37.267Z,27.27
2023-05-01T08:41:07.921Z,30.05
2023-05-01T08:43:36.978Z,32.50
2023-05-01T08:46:12.066Z,23.48
2023-05-01T08:48:43.649Z,25.52
2023-05-01T08:51:14.046Z,28.40
2023-05-01T08:53:44.384Z,52.70
2023-05-01T08:56:15.522Z,31.52
2023-05-01T08:58:45.991Z,29.10
2023-05-01T09:01:16.596Z,27.58
2023-05-01T09:03:46.022Z,24.67
2023-05-01T09:06:15.511Z,30.25
2023-05-01T09:08:44.858Z,30.30
2023-05-01T09:11:15.497Z,32.83
2023-05-01T09:13:44.670Z,27.88
2023-05-01T09:16:14.252Z,25.80
2023-05-01T09:18:43.436Z,25.45
2023-05-01T09:21:13.318Z,27.88
2023-05-01T09:23:42.274Z,21.90
2023-05-01T09:26:11.904Z,21.85
2023-05-01T09:28:43.835Z,25.65
2023-05-01T09:31:32.676Z,21.98
2023-05-01T09:34:02.715Z,22.33
2023-05-01T09:36:33.011Z,21.60
2023-05-01T09:39:02.983Z,17.23
2023-05-01T09:41:35.877Z,38.97
2023-05-01T09:44:06.525Z,20.73
2023-05-01T09:46:43.909Z,17.00
2023-05-01T09:49:13.280Z,17.13
2023-05-01T09:51:43.447Z,16.35
2023-05-01T09:54:19.710Z,24.73
2023-05-01T09:56:49.448Z,18.90
2023-05-01T09:59:20.841Z,16.17
2023-05-01T10:01:52.254Z,17.90
2023-05-01T10:04:32.064Z,22.23
2023-05-01T10:07:02.196Z,18.60
2023-05-01T10:09:32.442Z,25.73
2023-05-01T10:12:05.075Z,19.77
2023-05-01T10:14:38.768Z,20.42
2023-05-01T10:17:19.884Z,19.52
2023-05-01T10:19:49.208Z,19.73
2023-05-01T10:22:19.058Z,22.10
2023-05-01T10:24:48.372Z,22.55
2023-05-01T10:27:17.417Z,19.20
2023-05-01T10:29:49.067Z,17.85
2023-05-01T10:32:18.426Z,16.05
2023-05-01T10:34:49.814Z,46.15
2023-05-01T10:37:21.638Z,24.47
2023-05-01T10:39:50.816Z,22.60
2023-05-01T10:42:20.075Z,16.20
2023-05-01T10:44:50.829Z,18.35
2023-05-01T10:47:41.562Z,18.08
2023-05-01T10:50:11.314Z,18.83
2023-05-01T10:52:59.051Z,17.15
2023-05-01T10:55:34.066Z,21.85
2023-05-01T10:58:03.809Z,15.63
2023-05-01T11:00:34.549Z,15.38
2023-05-01T11:03:23.186Z,16.60
2023-05-01T11:06:10.463Z,19.38
2023-05-01T11:08:40.594Z,19.17
2023-05-01T11:11:28.950Z,19.55
2023-05-01T11:13:59.391Z,21.55
2023-05-01T11:16:49.645Z,22.63
2023-05-01T11:19:38.253Z,21.17
2023-05-01T11:22:14.205Z,22.65
2023-05-01T11:24:44.012Z,23.42
2023-05-01T11:27:16.689Z,21.05
2023-05-01T11:29:49.887Z,21.33
2023-05-01T11:32:24.713Z,20.65
2023-05-01T11:34:54.670Z,16.08
2023-05-01T11:37:42.864Z,17.42
2023-05-01T11:40:22.467Z,20.15
2023-05-01T11:42:51.597Z,22.13
2023-05-01T11:45:21.135Z,18.67
2023-05-01T11:47:51.770Z,16.80
2023-05-01T11:50:21.933Z,20.05
2023-05-01T11:52:53.679Z,20.83
2023-05-01T11:55:23.267Z,18.00
2023-05-01T11:57:53.075Z,14.65
2023-05-01T12:00:29.647Z,14.88
2023-05-01T12:03:02.487Z,22.65
2023-05-01T12:05:32.659Z,16.70
2023-05-01T12:08:08.216Z,18.10
2023-05-01T12:10:37.902Z,20.80
2023-05-01T12:13:07.687Z,22.80
2023-05-01T12:15:37.799Z,27.33
2023-05-01T12:18:08.593Z,17.63
2023-05-01T12:20:38.692Z,17.60
2023-05-01T12:23:08.434Z,16.40
2023-05-01T12:25:39.505Z,13.30
2023-05-01T12:28:13.167Z,16.88
2023-05-01T12:30:43.818Z,14.25
2023-05-01T12:33:15.335Z,16.08
2023-05-01T12:35:46.795Z,14.48
2023-05-01T12:38:17.329Z,17.88
2023-05-01T12:40:54.009Z,14.52
2023-05-01T12:43:24.036Z,19.25
2023-05-01T12:45:54.197Z,19.23
2023-05-01T12:48:26.384Z,21.63
2023-05-01T12:50:55.854Z,18.27
2023-05-01T12:53:25.487Z,22.25
2023-05-01T12:55:55.600Z,21.70
2023-05-01T12:58:24.983Z,19.27
2023-05-01T13:00:54.753Z,19.58
2023-05-01T13:03:27.007Z,20.60
2023-05-01T13:05:57.486Z,16.88
2023-05-01T13:08:30.735Z,16.95
2023-05-01T13:11:00.680Z,19.83
2023-05-01T13:13:31.769Z,22.15
2023-05-01T13:16:14.152Z,20.92
2023-05-01T13:21:15.700Z,20.70
2023-05-01T13:23:53.540Z,20.63
2023-05-01T13:26:27.865Z,20.38
2023-05-01T13:28:58.722Z,24.17
2023-05-01T13:31:28.250Z,20.23
2023-05-01T13:33:59.745Z,22.48
2023-05-01T13:36:33.582Z,19.52
2023-05-01T13:39:03.242Z,19.98
2023-05-01T13:41:32.372Z,18.60
2023-05-01T13:44:04.818Z,21.80
2023-05-01T13:46:37.919Z,18.98
2023-05-01T13:49:09.196Z,21.38
2023-05-01T13:51:43.720Z,21.33
2023-05-01T13:54:13.262Z,19.30
2023-05-01T13:56:43.266Z,21.75
2023-05-01T13:59:12.952Z,17.10
2023-05-01T14:01:46.651Z,22.02
2023-05-01T14:04:18.380Z,22.73
2023-05-01T14:06:49.977Z,24.23
2023-05-01T14:09:19.681Z,21.13
2023-05-01T14:11:52.411Z,21.15
2023-05-01T14:14:21.541Z,21.85
2023-05-01T14:16:51.087Z,25.10
2023-05-01T14:19:20.148Z,25.17
2023-05-01T14:21:50.636Z,22.75
2023-05-01T14:24:19.745Z,20.58
2023-05-01T14:26:50.388Z,24.77
2023-05-01T14:29:24.003Z,24.55
2023-05-01T14:31:54.370Z,22.58
2023-05-01T14:34:24.172Z,24.55
2023-05-01T14:36:56.310Z,24.85
2023-05-01T14:41:54.440Z,27.42
2023-05-01T14:44:26.622Z,19.75
2023-05-01T14:46:58.866Z,21.83
2023-05-01T14:49:28.216Z,22.80
2023-05-01T14:51:59.253Z,22.55
2023-05-01T14:54:28.821Z,21.48
2023-05-01T14:56:58.431Z,21.80
2023-05-01T14:59:28.294Z,24.38
2023-05-01T15:01:57.917Z,24.35
2023-05-01T15:04:28.274Z,26.17
2023-05-01T15:06:59.414Z,19.80
2023-05-01T15:09:32.113Z,19.52
2023-05-01T15:12:01.384Z,22.27
2023-05-01T15:14:30.880Z,22.80
2023-05-01T15:17:01.148Z,17.73
2023-05-01T15:19:33.632Z,19.10
2023-05-01T15:22:13.967Z,23.83
2023-05-01T15:24:46.752Z,17.87
2023-05-01T15:29:49.379Z,21.20
2023-05-01T15:32:19.371Z,18.63
2023-05-01T15:34:50.158Z,19.35
2023-05-01T15:37:20.702Z,22.75
2023-05-01T15:39:53.919Z,20.48
2023-05-01T15:45:21.251Z,19.48
2023-05-01T15:47:58.181Z,19.95
2023-05-01T15:50:31.967Z,18.45
2023-05-01T15:53:28.133Z,16.58
2023-05-01T15:56:08.552Z,13.27
2023-05-01T15:58:41.059Z,20.90
2023-05-01T16:01:15.544Z,22.00
2023-05-01T16:03:49.301Z,17.25
2023-05-01T16:06:18.878Z,19.75
2023-05-01T16:08:49.718Z,19.23
2023-05-01T16:11:19.179Z,19.90
2023-05-01T16:13:48.637Z,22.90
2023-05-01T16:16:21.470Z,17.90
2023-05-01T16:18:53.885Z,16.80
2023-05-01T16:21:23.349Z,17.95
2023-05-01T16:24:07.459Z,18.35
2023-05-01T16:26:36.864Z,19.35
2023-05-01T16:29:07.816Z,18.95
2023-05-01T16:31:41.138Z,21.57
2023-05-01T16:34:16.021Z,21.80
2023-05-01T16:36:46.878Z,17.48
2023-05-01T16:39:20.912Z,23.00
2023-05-01T16:41:51.271Z,16.58
2023-05-01T16:44:20.952Z,20.85
2023-05-01T16:46:53.516Z,22.55
2023-05-01T16:49:23.990Z,20.65
2023-05-01T16:51:56.515Z,17.48
2023-05-01T16:54:31.954Z,22.88
2023-05-01T16:57:02.305Z,22.42
2023-05-01T16:59:31.918Z,26.60
2023-05-01T17:02:01.352Z,25.33
2023-05-01T17:04:30.683Z,23.00
2023-05-01T17:07:01.912Z,20.85
2023-05-01T17:09:32.764Z,21.95
2023-05-01T17:12:03.762Z,19.23
2023-05-01T17:14:32.924Z,19.33
2023-05-01T17:17:02.575Z,15.23
2023-05-01T17:19:32.372Z,16.67
2023-05-01T17:22:03.140Z,19.08
2023-05-01T17:24:38.957Z,22.55
2023-05-01T17:27:11.136Z,19.35
2023-05-01T17:29:41.776Z,19.35
2023-05-01T17:32:11.266Z,18.92
2023-05-01T17:34:42.081Z,16.67
2023-05-01T17:37:11.775Z,16.65
2023-05-01T17:39:42.331Z,14.27
2023-05-01T17:42:14.299Z,20.88
2023-05-01T17:47:14.550Z,21.00
2023-05-01T17:49:43.948Z,15.40
2023-05-01T17:52:14.220Z,15.75
2023-05-01T17:54:46.504Z,14.50
2023-05-01T17:57:20.992Z,17.98
2023-05-01T17:59:51.244Z,17.33
2023-05-01T18:02:21.123Z,17.00
2023-05-01T18:04:51.128Z,15.55
2023-05-01T18:07:20.826Z,21.98
2023-05-01T18:09:52.126Z,16.20
2023-05-01T18:12:21.955Z,17.33
2023-05-01T18:14:51.316Z,19.92
2023-05-01T18:17:20.821Z,20.92
2023-05-01T18:19:50.153Z,15.40
2023-05-01T18:22:19.341Z,17.60
2023-05-01T18:24:48.390Z,21.65
2023-05-01T18:27:18.935Z,23.30
2023-05-01T18:29:47.926Z,20.30
2023-05-01T18:32:17.392Z,20.63
2023-05-01T18:34:46.913Z,22.65
2023-05-01T18:37:16.130Z,22.65
2023-05-01T18:39:45.525Z,18.55
2023-05-01T18:42:15.917Z,20.65
2023-05-01T18:44:46.857Z,19.27
2023-05-01T18:47:16.498Z,22.23
2023-05-01T18:49:45.610Z,25.67
2023-05-01T18:52:15.743Z,18.38
2023-05-01T18:54:45.060Z,25.50
2023-05-01T19:00:01.195Z,24.30
2023-05-01T19:02:31.512Z,25.23
2023-05-01T19:05:01.371Z,92.90
2023-05-01T19:07:35.469Z,23.13
2023-05-01T19:10:04.957Z,30.13
2023-05-01T19:12:35.192Z,25.63
2023-05-01T19:15:06.106Z,24.23
2023-05-01T19:17:35.172Z,26.80
2023-05-01T19:20:04.760Z,26.77
2023-05-01T19:22:33.854Z,25.48
2023-05-01T19:25:03.633Z,18.50
2023-05-01T19:27:33.550Z,23.83
2023-05-01T19:30:03.265Z,33.95
2023-05-01T19:32:34.468Z,21.13
2023-05-01T19:35:03.729Z,60.65
2023-05-01T19:37:32.841Z,27.05
2023-05-01T19:40:02.696Z,16.98
2023-05-01T19:42:32.312Z,21.42
2023-05-01T19:45:02.628Z,24.45
2023-05-01T19:47:31.803Z,22.95
2023-05-01T19:50:02.543Z,18.80
2023-05-01T19:52:32.203Z,24.35
2023-05-01T19:55:03.113Z,21.27
2023-05-01T19:57:33.783Z,20.95
2023-05-01T20:00:05.259Z,21.90
2023-05-01T20:02:39.355Z,22.25
2023-05-01T20:05:10.762Z,25.70
2023-05-01T20:07:39.886Z,26.52
2023-05-01T20:10:09.759Z,21.52
2023-05-01T20:12:39.300Z,21.70
2023-05-01T20:15:08.781Z,22.63
2023-05-01T20:17:37.848Z,23.73
2023-05-01T20:20:07.214Z,21.35
2023-05-01T20:22:37.524Z,16.02
2023-05-01T20:25:09.368Z,19.30
2023-05-01T20:30:10.556Z,18.77
2023-05-01T20:32:42.634Z,20.02
2023-05-01T20:35:12.168Z,23.65
2023-05-01T20:37:42.545Z,22.95
2023-05-01T20:40:12.307Z,24.10
2023-05-01T20:42:42.170Z,21.90
2023-05-01T20:45:12.648Z,25.55
2023-05-01T20:47:41.735Z,20.67
2023-05-01T20:50:11.491Z,23.13
2023-05-01T20:52:42.133Z,31.58
2023-05-01T20:55:11.914Z,28.42
2023-05-01T20:57:41.503Z,26.48
2023-05-01T21:00:11.293Z,23.30
2023-05-01T21:02:43.277Z,26.70
2023-05-01T21:05:12.546Z,25.60
2023-05-01T21:07:43.143Z,22.95
2023-05-01T21:10:17.383Z,22.73
2023-05-01T21:12:46.722Z,29.88
2023-05-01T21:15:16.326Z,24.13
2023-05-01T21:17:45.373Z,25.35
2023-05-01T21:20:17.338Z,25.67
2023-05-01T21:22:50.355Z,30.38
2023-05-01T21:25:29.923Z,28.88
2023-05-01T21:28:01.866Z,21.92
2023-05-01T21:33:00.771Z,22.27
2023-05-01T21:35:30.768Z,26.85
2023-05-01T21:38:01.513Z,21.05
2023-05-01T21:40:31.360Z,22.70
2023-05-01T21:43:02.297Z,24.20
2023-05-01T21:45:36.696Z,20.15
2023-05-01T21:48:06.316Z,22.70
2023-05-01T21:50:36.695Z,23.27
2023-05-01T21:53:07.690Z,18.65
2023-05-01T21:55:36.919Z,20.70
2023-05-01T21:58:06.547Z,21.42
2023-05-01T22:00:35.849Z,19.42
2023-05-01T22:03:07.008Z,18.52
2023-05-01T22:05:41.166Z,21.02
2023-05-01T22:08:12.131Z,19.65
2023-05-01T22:10:43.096Z,19.80
2023-05-01T22:13:12.632Z,16.67
2023-05-01T22:15:42.557Z,15.90
2023-05-01T22:18:14.655Z,18.75
2023-05-01T22:20:43.791Z,21.38
2023-05-01T22:23:14.578Z,18.40
2023-05-01T22:25:43.833Z,18.58
2023-05-01T22:28:13.701Z,18.58
2023-05-01T22:30:44.580Z,18.55
2023-05-01T22:33:14.697Z,20.40
2023-05-01T22:35:44.646Z,19.27
2023-05-01T22:38:15.460Z,17.23
2023-05-01T22:40:44.707Z,21.52
2023-05-01T22:43:14.809Z,17.65
2023-05-01T22:45:44.335Z,16.00
2023-05-01T22:48:13.990Z,15.45
2023-05-01T22:50:43.877Z,16.30
2023-05-01T22:53:13.257Z,17.63
2023-05-01T22:55:44.329Z,18.25
2023-05-01T22:58:14.032Z,19.95
2023-05-01T23:00:43.853Z,18.45
2023-05-01T23:03:15.744Z,20.05
2023-05-01T23:05:44.921Z,19.20
2023-05-01T23:08:14.454Z,25.10
2023-05-01T23:10:46.414Z,15.02
2023-05-01T23:13:24.422Z,17.25
2023-05-01T23:15:53.722Z,19.17
2023-05-01T23:18:25.244Z,14.93
2023-05-01T23:20:55.663Z,18.38
2023-05-01T23:23:31.253Z,16.00
2023-05-01T23:26:01.837Z,16.00
2023-05-01T23:28:30.959Z,16.65
2023-05-01T23:31:01.233Z,16.83
2023-05-01T23:33:36.989Z,19.33
2023-05-01T23:36:06.649Z,16.92
2023-05-01T23:38:36.057Z,15.30
2023-05-01T23:41:07.924Z,16.58
2023-05-01T23:43:38.010Z,17.83
2023-05-01T23:46:07.944Z,17.27
2023-05-01T23:48:37.061Z,19.27
2023-05-01T23:51:06.529Z,18.70
2023-05-01T23:53:35.586Z,18.48
2023-05-01T23:56:04.573Z,17.33
2023-05-01T23:58:34.896Z,20.38
